ADDS METAR Data INFO
IDs: Format: Raw Decoded Include TAF

Data at: 0050 UTC 22 Oct 2017

KJOT 220035Z AUTO 17008KT 10SM CLR 22/15 A3002 RMK AO2 LTG DSNT W T02200152
KJOT 220015Z AUTO 16005KT 10SM CLR 22/15 A3002 RMK AO2 LTG DSNT NW T02220152
KJOT 212355Z AUTO 17007KT 10SM CLR 23/15 A3002 RMK AO2 T02270152 10257 20227
KJOT 212335Z AUTO 18008KT 10SM CLR 23/15 A3002 RMK AO2 T02300151
KJOT 212315Z AUTO 17008KT 10SM CLR 23/15 A3001 RMK AO2 T02310153
KJOT 212255Z AUTO 17008KT 10SM CLR 23/16 A3001 RMK AO2 T02340155
KJOT 212235Z AUTO 17009G16KT 10SM CLR 24/16 A3000 RMK AO2 T02390156
KJOT 212215Z AUTO 19012G17KT 10SM CLR 25/16 A2999 RMK AO2 T02450161
KJOT 212155Z AUTO 19013G22KT 10SM CLR 24/16 A3000 RMK AO2 T02430158
KJOT 212135Z AUTO 18009G15KT 10SM CLR 25/16 A2999 RMK AO2 T02490158
KJOT 212115Z AUTO 18012G16KT 10SM CLR 25/16 A2999 RMK AO2 T02480157
KJOT 212055Z AUTO 19012G22KT 10SM CLR 25/16 A2999 RMK AO2 T02480159
KJOT 212035Z AUTO 18011G21KT 10SM CLR 25/16 A2999 RMK AO2 T02490159
KJOT 212015Z AUTO 18015G22KT 10SM CLR 25/15 A2999 RMK AO2 T02530151
KJOT 211955Z AUTO 19012G19KT 10SM CLR 25/16 A2999 RMK AO2 T02520156
KJOT 211935Z AUTO 20013G20KT 10SM CLR 25/15 A3000 RMK AO2 T02500154
KJOT 211915Z AUTO 19012G23KT 10SM CLR 25/15 A3001 RMK AO2 T02450151
KJOT 211855Z AUTO 18011G21KT 10SM CLR 24/15 A3002 RMK AO2 T02420145
KJOT 211835Z AUTO 20016G21KT 10SM CLR 24/14 A3003 RMK AO2 T02390143
KJOT 211815Z AUTO 19016G21KT 10SM CLR 24/14 A3003 RMK AO2 T02420143
KJOT 211755Z AUTO 20011G17KT 10SM CLR 25/15 A3004 RMK AO2 T02490147 10249 20159
KJOT 211735Z AUTO 21010G18KT 170V240 10SM CLR 24/14 A3005 RMK AO2 T02360139
KJOT 211715Z AUTO 20014G20KT 10SM CLR 23/14 A3007 RMK AO2 T02280140
KJOT 211655Z AUTO 19012G18KT 10SM CLR 23/14 A3007 RMK AO2 T02280138
KJOT 211635Z AUTO 19012G16KT 10SM CLR 22/14 A3007 RMK AO2 T02240136
KJOT 211615Z AUTO 17009G14KT 10SM CLR 21/13 A3007 RMK AO2 LTG DSNT NW T02120130
KJOT 211555Z AUTO 18008G14KT 10SM CLR 20/12 A3007 RMK AO2 T02000123
KJOT 211535Z AUTO 17012G16KT 10SM CLR 20/12 A3007 RMK AO2 T01950119
KJOT 211515Z AUTO 17011G14KT 10SM CLR 19/12 A3008 RMK AO2 T01920118
KJOT 211455Z AUTO 16010KT 10SM CLR 18/11 A3008 RMK AO2 T01840111
KJOT 211435Z AUTO 17009KT 10SM CLR 18/11 A3008 RMK AO2 T01760111
KJOT 211415Z AUTO 17009KT 10SM CLR 17/11 A3009 RMK AO2 T01680110
KJOT 211355Z AUTO 17009KT 10SM CLR 17/11 A3009 RMK AO2 T01650106
KJOT 211335Z AUTO 17008KT 10SM CLR 16/11 A3008 RMK AO2 T01610106
KJOT 211315Z AUTO 16007KT 10SM CLR 16/11 A3007 RMK AO2 LTG DSNT NW T01600106
KJOT 211255Z AUTO 15007KT 10SM CLR 16/11 A3007 RMK AO2 T01610106
KJOT 211235Z AUTO 16007KT 10SM CLR 16/11 A3007 RMK AO2 T01610107
KJOT 211215Z AUTO 17006KT 10SM CLR 16/11 A3007 RMK AO2 T01640107
KJOT 211155Z AUTO 16006KT 10SM CLR 17/11 A3007 RMK AO2 T01650108 10182 20161
KJOT 211135Z AUTO 17006KT 10SM VCTS CLR 16/11 A3007 RMK AO2 T01620107
KJOT 211115Z AUTO 16006KT 10SM CLR 16/11 A3007 RMK AO2 LTG DSNT W T01630107
KJOT 211055Z AUTO 16004KT 10SM CLR 16/11 A3006 RMK AO2 T01620107
KJOT 211035Z AUTO 16004KT 10SM CLR 17/11 A3006 RMK AO2 T01650106
KJOT 211015Z AUTO 16005KT 10SM CLR 17/11 A3006 RMK AO2 T01650106
KJOT 210955Z AUTO 17005KT 10SM CLR 16/11 A3007 RMK AO2 T01620105
KJOT 210935Z AUTO 16003KT 10SM CLR 16/11 A3007 RMK AO2 T01610105
KJOT 210915Z AUTO 17004KT 10SM CLR 16/11 A3007 RMK AO2 T01630106
KJOT 210855Z AUTO 17004KT 10SM CLR 16/11 A3006 RMK AO2 T01630106
KJOT 210835Z AUTO 18003KT 10SM CLR 17/11 A3006 RMK AO2 T01650105
KJOT 210815Z AUTO 16004KT 10SM CLR 17/11 A3007 RMK AO2 T01660105
KJOT 210755Z AUTO 16004KT 10SM CLR 17/11 A3006 RMK AO2 T01670105
KJOT 210735Z AUTO 15005KT 10SM CLR 17/11 A3006 RMK AO2 T01700105
KJOT 210715Z AUTO 17005KT 10SM CLR 17/10 A3007 RMK AO2 T01710103
KJOT 210655Z AUTO 17008KT 10SM CLR 18/10 A3006 RMK AO2 T01800102
KJOT 210635Z AUTO 19007KT 10SM CLR 18/10 A3007 RMK AO2 T01800102
KJOT 210615Z AUTO 19008KT 10SM CLR 18/10 A3007 RMK AO2 T01810103
KJOT 210555Z AUTO 19008KT 10SM CLR 18/10 A3007 RMK AO2 T01800103 10209 20176 402660087
KJOT 210535Z AUTO 19009KT 10SM CLR 18/10 A3007 RMK AO2 T01800102
KJOT 210515Z AUTO 17009KT 10SM CLR 18/10 A3006 RMK AO2 T01800102
KJOT 210455Z AUTO 16007KT 10SM CLR 18/10 A3006 RMK AO2 T01800102
KJOT 210435Z AUTO 17007KT 10SM CLR 18/10 A3006 RMK AO2 T01830100
KJOT 210415Z AUTO 18007KT 10SM CLR 19/10 A3007 RMK AO2 T01860101
KJOT 210355Z AUTO 18008KT 10SM CLR 19/10 A3007 RMK AO2 T01860101
KJOT 210335Z AUTO 18008G15KT 10SM CLR 19/10 A3007 RMK AO2 T01890100
KJOT 210315Z AUTO 18006KT 10SM CLR 19/10 A3007 RMK AO2 T01850100
KJOT 210255Z AUTO 17003KT 10SM CLR 18/10 A3007 RMK AO2 T01770096
KJOT 210235Z AUTO 17004KT 10SM CLR 18/09 A3006 RMK AO2 T01810093
KJOT 210215Z AUTO 16005KT 10SM CLR 19/09 A3006 RMK AO2 T01860090
KJOT 210155Z AUTO 16006KT 10SM CLR 19/09 A3006 RMK AO2 T01920088
KJOT 210135Z AUTO 16005KT 10SM CLR 20/09 A3006 RMK AO2 T01950090
KJOT 210115Z AUTO 15006KT 10SM CLR 20/09 A3006 RMK AO2 T01950093
KJOT 210055Z AUTO 15005KT 10SM CLR 20/10 A3006 RMK AO2 T01980095
KJOT 210035Z AUTO 15004KT 10SM CLR 20/10 A3006 RMK AO2 T02010097
KJOT 210015Z AUTO 15005KT 10SM CLR 21/10 A3006 RMK AO2 T02070101
KJOT 202355Z AUTO 15004KT 10SM CLR 21/11 A3006 RMK AO2 T02100105 10266 20210
KJOT 202335Z AUTO 16004KT 10SM CLR 21/11 A3006 RMK AO2 T02140106
KJOT 202315Z AUTO 16005KT 10SM CLR 22/11 A3006 RMK AO2 T02210110
KJOT 202255Z AUTO 16004KT 10SM CLR 23/11 A3006 RMK AO2 T02260109
KJOT 202235Z AUTO 16003KT 10SM CLR 24/11 A3006 RMK AO2 T02350110
KJOT 202215Z AUTO 18005KT 10SM CLR 24/11 A3006 RMK AO2 T02400110
KJOT 202155Z AUTO 16005KT 10SM CLR 24/11 A3006 RMK AO2 T02440112
KJOT 202135Z AUTO 18005KT 10SM CLR 25/11 A3006 RMK AO2 T02450107
KJOT 202115Z AUTO 18010G15KT 10SM CLR 26/11 A3007 RMK AO2 T02550105
KJOT 202055Z AUTO 18009KT 10SM CLR 26/11 A3007 RMK AO2 T02640110
KJOT 202035Z AUTO 19009KT 10SM CLR 27/11 A3007 RMK AO2 T02650109
KJOT 202015Z AUTO 18010G15KT 10SM CLR 26/11 A3008 RMK AO2 T02620108
KJOT 201955Z AUTO 19011G16KT 10SM CLR 27/11 A3009 RMK AO2 T02650112
KJOT 201935Z AUTO 18010KT 10SM CLR 26/11 A3009 RMK AO2 T02630110
KJOT 201915Z AUTO 20010G14KT 10SM CLR 26/11 A3010 RMK AO2 T02620108
KJOT 201855Z AUTO 19010G14KT 10SM CLR 26/11 A3010 RMK AO2 T02590114
KJOT 201835Z AUTO 19009KT 10SM CLR 26/12 A3011 RMK AO2 T02570118
KJOT 201815Z AUTO 19009KT 10SM CLR 25/13 A3012 RMK AO2 T02530126
KJOT 201755Z AUTO 20009KT 10SM CLR 25/13 A3014 RMK AO2 T02470127 10247 20087
KJOT 201735Z AUTO 17008KT 10SM CLR 24/13 A3014 RMK AO2 T02410133
KJOT 201715Z AUTO 20004KT 10SM CLR 24/12 A3016 RMK AO2 T02370124
KJOT 201655Z AUTO 20004KT 10SM CLR 23/13 A3016 RMK AO2 T02300126
KJOT 201635Z AUTO 17005KT 10SM CLR 22/13 A3017 RMK AO2 T02210129
KJOT 201615Z AUTO 22005KT 10SM CLR 21/13 A3018 RMK AO2 T02140125
KJOT 201555Z AUTO 22004KT 10SM CLR 21/12 A3018 RMK AO2 T02050124
KJOT 201535Z AUTO 22005KT 10SM CLR 20/12 A3019 RMK AO2 T01990121
KJOT 201515Z AUTO 21007KT 10SM CLR 19/12 A3019 RMK AO2 T01920120
KJOT 201455Z AUTO 20006KT 10SM CLR 19/12 A3019 RMK AO2 T01850121
KJOT 201435Z AUTO 18005KT 10SM CLR 17/12 A3019 RMK AO2 T01720119
KJOT 201415Z AUTO 19006KT 10SM CLR 17/12 A3019 RMK AO2 T01650122
KJOT 201355Z AUTO 18005KT 10SM CLR 16/12 A3019 RMK AO2 T01550115
KJOT 201335Z AUTO 18004KT 10SM CLR 14/12 A3019 RMK AO2 T01430115
KJOT 201315Z AUTO 17003KT 10SM CLR 13/11 A3019 RMK AO2 T01280108
KJOT 201255Z AUTO 00000KT 10SM CLR 10/10 A3019 RMK AO2 T01010095